Andrews, Texas
Current Conditions -  °F | °C
As of 10:35 PM on Wednesday 22 Oct 2014 (Local Time) from KE11 Reporting Station
Clear Clear  
Wind Chill: 59°   Ceiling: Unl
Heat Index: 59°   Visibility: 10mi
Dew Point: 53°   Wind: 6mph
Humidity: 80%   Direction: 160°SSE
Pressure: 30.14"   Gusts: NA
Location:  32.32°N, 102.54°W
Report Text: KE11 230335Z AUTO 16005KT 10SM CLR 15/12 A3014 RMK AO2 T01500115
Loading
Personal Weather Stations






























Interactive Weather Map
Tropical Storm Tracking
New forecast layout! Learn more

10-Day Weather Forecast

Advertisements
Track Severe Weather on mobile